Time;durP1;ratioP1;P1;durP2;ratioP2;P2;SDS_P1;SDS_P2;PMS_P1;PMS_P2;Temp;Humidity;BMP_temperature;BMP_pressure;BME280_temperature;BME280_humidity;BME280_pressure;Samples;Min_cycle;Max_cycle;Signal;HPM_P1;HPM_P2
2021/10/06 00:00:31;;;;;;;0.73;0.70;;;;;;;;;;4995281;28;20030;-89
2021/10/06 00:02:57;;;;;;;0.22;0.22;;;;;;;;;;4992478;28;20577;-88
2021/10/06 00:05:23;;;;;;;0.10;0.10;;;;;;;;;;4996038;28;20053;-87
2021/10/06 00:07:49;;;;;;;0.53;0.53;;;;;;;;;;4994244;28;20061;-88
2021/10/06 00:10:15;;;;;;;5.80;1.95;;;;;;;;;;4994709;28;20454;-87
2021/10/06 00:12:41;;;;;;;0.73;0.60;;;;;;;;;;5009127;28;20561;-88
2021/10/06 00:15:09;;;;;;;0.30;0.30;;;;;;;;;;4993284;28;20080;-89
2021/10/06 00:17:35;;;;;;;1.27;0.75;;;;;;;;;;4990825;28;20074;-87
2021/10/06 00:20:01;;;;;;;1.15;1.02;;;;;;;;;;4992299;28;20135;-87
2021/10/06 00:22:27;;;;;;;9.00;2.28;;;;;;;;;;4991607;28;20034;-87
2021/10/06 00:24:53;;;;;;;0.40;0.40;;;;;;;;;;4992797;28;20125;-86
2021/10/06 00:27:19;;;;;;;0.32;0.32;;;;;;;;;;4991901;28;20113;-85
2021/10/06 00:29:45;;;;;;;1.00;0.98;;;;;;;;;;4992477;28;20033;-86
2021/10/06 00:32:11;;;;;;;0.20;0.20;;;;;;;;;;4991592;28;20045;-87
2021/10/06 00:34:37;;;;;;;2.90;2.17;;;;;;;;;;4995260;28;20026;-87
2021/10/06 00:37:03;;;;;;;2.97;2.08;;;;;;;;;;4992107;28;20038;-87
2021/10/06 00:39:29;;;;;;;0.77;0.77;;;;;;;;;;4993254;28;20030;-86
2021/10/06 00:41:55;;;;;;;2.13;1.93;;;;;;;;;;4994601;28;20418;-86
2021/10/06 00:44:22;;;;;;;0.57;0.57;;;;;;;;;;4992392;28;20030;-87
2021/10/06 00:46:49;;;;;;;0.55;0.55;;;;;;;;;;4991890;28;20041;-88
2021/10/06 00:49:19;;;;;;;0.45;0.45;;;;;;;;;;4991879;28;20045;-86
2021/10/06 00:51:45;;;;;;;0.10;0.10;;;;;;;;;;4992827;28;20088;-86
2021/10/06 00:54:11;;;;;;;0.10;0.10;;;;;;;;;;4991900;28;20045;-88
2021/10/06 00:56:37;;;;;;;3.67;2.53;;;;;;;;;;4990292;28;20030;-87
2021/10/06 00:59:03;;;;;;;1.87;1.37;;;;;;;;;;4992984;28;21686;-88
2021/10/06 01:01:29;;;;;;;0.68;0.68;;;;;;;;;;4990946;28;20034;-88
2021/10/06 01:03:55;;;;;;;0.57;0.57;;;;;;;;;;4990596;28;20068;-86
2021/10/06 01:06:22;;;;;;;1.70;1.60;;;;;;;;;;4991308;28;20046;-87
2021/10/06 01:08:48;;;;;;;4.55;1.45;;;;;;;;;;4993572;28;20118;-86
2021/10/06 01:11:14;;;;;;;4.70;1.67;;;;;;;;;;4990572;28;20419;-87
2021/10/06 01:13:41;;;;;;;0.40;0.40;;;;;;;;;;4990895;28;20054;-88
2021/10/06 01:16:07;;;;;;;9.90;2.35;;;;;;;;;;4991869;28;20849;-86
2021/10/06 01:18:33;;;;;;;2.43;1.93;;;;;;;;;;4991678;28;20046;-88
2021/10/06 01:21:06;;;;;;;0.50;0.50;;;;;;;;;;4993155;28;20034;-90
2021/10/06 01:23:32;;;;;;;0.20;0.20;;;;;;;;;;4991541;28;20287;-88
2021/10/06 01:25:58;;;;;;;0.10;0.10;;;;;;;;;;4991383;28;20029;-89
2021/10/06 01:28:24;;;;;;;0.52;0.50;;;;;;;;;;4989811;28;20034;-89
2021/10/06 01:30:50;;;;;;;0.20;0.20;;;;;;;;;;4989206;28;20038;-89
2021/10/06 01:33:16;;;;;;;10.00;1.70;;;;;;;;;;4990902;28;20280;-88
2021/10/06 01:35:42;;;;;;;0.17;0.17;;;;;;;;;;4991969;28;20045;-87
2021/10/06 01:38:08;;;;;;;0.28;0.28;;;;;;;;;;4991516;28;20030;-89
2021/10/06 01:40:34;;;;;;;0.80;0.57;;;;;;;;;;4991121;28;20026;-89
2021/10/06 01:43:00;;;;;;;6.35;1.88;;;;;;;;;;4991450;28;20403;-89
2021/10/06 01:45:28;;;;;;;0.10;0.10;;;;;;;;;;4990812;28;20038;-88
2021/10/06 01:47:54;;;;;;;0.68;0.68;;;;;;;;;;4989467;28;20119;-87
2021/10/06 01:50:24;;;;;;;0.15;0.15;;;;;;;;;;4989524;28;20069;-86
2021/10/06 01:52:51;;;;;;;0.20;0.20;;;;;;;;;;4991450;28;20144;-88
2021/10/06 01:55:17;;;;;;;0.10;0.10;;;;;;;;;;4992350;28;20026;-90
2021/10/06 01:57:43;;;;;;;1.33;1.23;;;;;;;;;;4994057;28;20037;-88
2021/10/06 02:00:09;;;;;;;0.63;0.63;;;;;;;;;;4991662;28;20292;-89
2021/10/06 02:02:36;;;;;;;0.10;0.10;;;;;;;;;;4990340;28;20034;-88
2021/10/06 02:05:02;;;;;;;0.13;0.13;;;;;;;;;;4988929;28;20065;-88
2021/10/06 02:07:28;;;;;;;0.20;0.20;;;;;;;;;;4991560;28;20042;-92
2021/10/06 02:09:54;;;;;;;0.20;0.20;;;;;;;;;;4993549;28;20028;-91
2021/10/06 02:12:20;;;;;;;0.15;0.15;;;;;;;;;;4996251;28;20492;-90
2021/10/06 02:14:46;;;;;;;0.15;0.15;;;;;;;;;;4991082;28;20065;-89
2021/10/06 02:17:12;;;;;;;1.50;1.23;;;;;;;;;;4993928;28;20104;-89
2021/10/06 02:19:38;;;;;;;0.10;0.10;;;;;;;;;;4991347;28;20176;-89
2021/10/06 02:22:04;;;;;;;0.75;0.75;;;;;;;;;;4991772;28;20034;-88
2021/10/06 02:24:30;;;;;;;0.10;0.10;;;;;;;;;;4991934;28;20041;-87
2021/10/06 02:26:56;;;;;;;0.28;0.28;;;;;;;;;;4992895;28;20802;-89
2021/10/06 02:29:22;;;;;;;0.38;0.38;;;;;;;;;;4994441;28;20027;-87
2021/10/06 02:31:48;;;;;;;0.10;0.10;;;;;;;;;;4992188;28;20133;-88
2021/10/06 02:34:14;;;;;;;6.43;0.88;;;;;;;;;;4994805;28;20033;-90
2021/10/06 02:36:40;;;;;;;1.30;0.70;;;;;;;;;;4993073;28;20658;-90
2021/10/06 02:39:06;;;;;;;0.10;0.10;;;;;;;;;;4991405;28;20026;-87
2021/10/06 02:41:32;;;;;;;0.80;0.27;;;;;;;;;;4991168;28;20104;-89
2021/10/06 02:43:58;;;;;;;0.40;0.40;;;;;;;;;;4991967;28;20324;-88
2021/10/06 02:46:24;;;;;;;0.50;0.50;;;;;;;;;;4995048;28;20836;-88
2021/10/06 02:48:50;;;;;;;0.83;0.77;;;;;;;;;;4994143;28;20678;-89
2021/10/06 02:51:16;;;;;;;0.10;0.10;;;;;;;;;;4993148;28;20698;-90
2021/10/06 02:53:42;;;;;;;0.20;0.20;;;;;;;;;;4996855;28;20061;-87
2021/10/06 02:56:08;;;;;;;0.10;0.10;;;;;;;;;;4991417;28;20025;-90
2021/10/06 02:58:34;;;;;;;0.17;0.17;;;;;;;;;;4997883;28;20266;-88
2021/10/06 03:01:00;;;;;;;0.20;0.20;;;;;;;;;;4995736;28;20035;-90
2021/10/06 03:03:26;;;;;;;0.75;0.47;;;;;;;;;;4997260;28;20041;-90
2021/10/06 03:05:52;;;;;;;1.27;0.70;;;;;;;;;;4994485;28;20034;-89
2021/10/06 03:08:18;;;;;;;0.98;0.90;;;;;;;;;;4997228;28;20034;-88
2021/10/06 03:10:44;;;;;;;0.30;0.30;;;;;;;;;;4995472;28;20053;-89
2021/10/06 03:13:10;;;;;;;0.20;0.20;;;;;;;;;;4993029;28;20033;-89
2021/10/06 03:15:36;;;;;;;0.00;0.00;;;;;;;;;;4992193;28;20054;-89
2021/10/06 03:18:02;;;;;;;0.10;0.10;;;;;;;;;;4993629;28;20530;-90
2021/10/06 03:20:30;;;;;;;2.45;1.15;;;;;;;;;;4993450;28;20081;-86
2021/10/06 03:22:56;;;;;;;1.93;1.50;;;;;;;;;;4993910;28;20128;-87
2021/10/06 03:25:22;;;;;;;0.10;0.10;;;;;;;;;;4992894;28;20316;-86
2021/10/06 03:27:48;;;;;;;2.10;1.38;;;;;;;;;;4992026;28;20031;-87
2021/10/06 03:30:14;;;;;;;0.33;0.33;;;;;;;;;;4996449;28;20032;-87
2021/10/06 03:32:40;;;;;;;0.10;0.10;;;;;;;;;;4991648;28;20030;-86
2021/10/06 03:35:07;;;;;;;0.40;0.40;;;;;;;;;;4993483;28;20033;-87
2021/10/06 03:37:34;;;;;;;0.10;0.10;;;;;;;;;;5001484;28;20038;-87
2021/10/06 03:40:00;;;;;;;0.63;0.63;;;;;;;;;;4995846;28;20042;-87
2021/10/06 03:42:26;;;;;;;1.20;1.20;;;;;;;;;;4992112;28;20034;-88
2021/10/06 03:44:52;;;;;;;0.77;0.52;;;;;;;;;;4993813;28;20113;-87
2021/10/06 03:47:18;;;;;;;1.30;0.63;;;;;;;;;;4994338;28;20902;-89
2021/10/06 03:49:44;;;;;;;0.63;0.63;;;;;;;;;;4991377;28;20483;-88
2021/10/06 03:52:10;;;;;;;0.07;0.07;;;;;;;;;;4994305;28;20133;-89
2021/10/06 03:54:36;;;;;;;15.10;2.33;;;;;;;;;;4992146;28;20141;-88
2021/10/06 03:57:02;;;;;;;1.60;0.22;;;;;;;;;;4994174;28;20038;-87
2021/10/06 03:59:28;;;;;;;0.10;0.10;;;;;;;;;;4994585;28;20074;-89
2021/10/06 04:01:54;;;;;;;0.10;0.10;;;;;;;;;;4997828;28;20117;-91
2021/10/06 04:04:20;;;;;;;0.43;0.43;;;;;;;;;;4995220;28;20778;-90
2021/10/06 04:06:46;;;;;;;0.20;0.20;;;;;;;;;;4998426;28;20026;-92
2021/10/06 04:09:12;;;;;;;1.45;1.35;;;;;;;;;;4994506;28;20045;-89
2021/10/06 04:11:39;;;;;;;0.20;0.20;;;;;;;;;;5001590;28;20069;-88
2021/10/06 04:14:05;;;;;;;0.17;0.17;;;;;;;;;;4994900;28;20395;-88
2021/10/06 04:16:31;;;;;;;0.20;0.20;;;;;;;;;;5004321;28;20037;-88
2021/10/06 04:18:57;;;;;;;0.50;0.50;;;;;;;;;;4991816;28;20802;-88
2021/10/06 04:21:23;;;;;;;0.52;0.52;;;;;;;;;;4997984;28;20564;-88
2021/10/06 04:23:49;;;;;;;0.40;0.40;;;;;;;;;;4993047;28;20065;-87
2021/10/06 04:26:15;;;;;;;0.10;0.10;;;;;;;;;;4990779;28;20038;-88
2021/10/06 04:28:41;;;;;;;3.00;1.20;;;;;;;;;;4991583;28;20324;-88
2021/10/06 04:31:07;;;;;;;0.30;0.30;;;;;;;;;;4997198;28;20065;-89
2021/10/06 04:33:33;;;;;;;0.10;0.10;;;;;;;;;;5000920;28;20030;-89
2021/10/06 04:35:59;;;;;;;3.63;1.35;;;;;;;;;;4991671;28;20502;-88
2021/10/06 04:38:25;;;;;;;0.20;0.20;;;;;;;;;;4995429;28;20030;-90
2021/10/06 04:40:51;;;;;;;1.65;1.10;;;;;;;;;;4994677;28;20040;-86
2021/10/06 04:43:17;;;;;;;0.10;0.10;;;;;;;;;;4990090;28;20038;-88
2021/10/06 04:45:43;;;;;;;0.10;0.10;;;;;;;;;;4996782;28;20128;-91
2021/10/06 04:48:09;;;;;;;17.83;3.30;;;;;;;;;;4996427;28;20057;-90
2021/10/06 04:50:35;;;;;;;0.17;0.17;;;;;;;;;;4997073;28;20356;-90
2021/10/06 04:53:03;;;;;;;0.25;0.25;;;;;;;;;;5000069;28;20041;-93
2021/10/06 04:55:29;;;;;;;9.30;5.13;;;;;;;;;;4990596;28;20062;-92
2021/10/06 04:57:57;;;;;;;8.55;7.78;;;;;;;;;;4998336;28;20038;-94
2021/10/06 05:00:23;;;;;;;3.67;2.60;;;;;;;;;;5001003;28;20072;-92
2021/10/06 05:02:49;;;;;;;2.33;2.13;;;;;;;;;;5002122;28;20030;-93
2021/10/06 05:05:15;;;;;;;7.77;5.83;;;;;;;;;;4998707;28;20291;-92
2021/10/06 05:07:41;;;;;;;11.75;10.55;;;;;;;;;;5003169;28;20487;-95
2021/10/06 05:10:07;;;;;;;2.37;2.17;;;;;;;;;;5001049;28;20030;-95
2021/10/06 05:12:33;;;;;;;5.57;5.03;;;;;;;;;;5010377;28;20081;-94
2021/10/06 05:14:59;;;;;;;3.40;2.57;;;;;;;;;;5002912;28;20033;-92
2021/10/06 05:17:26;;;;;;;2.00;1.90;;;;;;;;;;5001352;28;20040;-95
2021/10/06 05:19:52;;;;;;;3.07;2.40;;;;;;;;;;5001815;28;20073;-91
2021/10/06 05:22:18;;;;;;;5.45;3.35;;;;;;;;;;5003192;28;20093;-93
2021/10/06 05:24:44;;;;;;;1.10;1.02;;;;;;;;;;5000470;28;20046;-93
2021/10/06 05:27:10;;;;;;;2.40;1.43;;;;;;;;;;4999895;28;20034;-93
2021/10/06 05:29:36;;;;;;;0.57;0.40;;;;;;;;;;4998094;28;20502;-94
2021/10/06 05:32:05;;;;;;;0.20;0.20;;;;;;;;;;4998893;28;20041;-91
2021/10/06 05:34:32;;;;;;;1.00;0.60;;;;;;;;;;4993375;28;20034;-91
2021/10/06 05:36:58;;;;;;;3.05;1.00;;;;;;;;;;4994584;28;20046;-95
2021/10/06 05:39:25;;;;;;;0.10;0.10;;;;;;;;;;4992661;28;20026;-91
2021/10/06 05:41:51;;;;;;;5.95;4.03;;;;;;;;;;5000855;28;20028;-89
2021/10/06 05:44:17;;;;;;;0.73;0.73;;;;;;;;;;5003998;28;20037;-90
2021/10/06 05:46:43;;;;;;;0.20;0.20;;;;;;;;;;5005183;28;23758;-91
2021/10/06 05:49:09;;;;;;;1.23;1.17;;;;;;;;;;5006337;28;20093;-92
2021/10/06 05:51:35;;;;;;;1.30;1.30;;;;;;;;;;5002185;28;20415;-91
2021/10/06 05:54:01;;;;;;;3.90;2.22;;;;;;;;;;4995036;28;20089;-86
2021/10/06 05:56:27;;;;;;;0.75;0.70;;;;;;;;;;5002396;28;20041;-84
2021/10/06 05:58:53;;;;;;;0.30;0.30;;;;;;;;;;5002454;28;20076;-83
2021/10/06 06:01:19;;;;;;;0.10;0.10;;;;;;;;;;5003935;28;20046;-87
2021/10/06 06:03:45;;;;;;;0.10;0.10;;;;;;;;;;4988039;28;20034;-90
2021/10/06 06:06:11;;;;;;;0.20;0.20;;;;;;;;;;4998661;28;20538;-86
2021/10/06 06:08:37;;;;;;;6.93;5.38;;;;;;;;;;5001276;28;20080;-88
2021/10/06 06:11:04;;;;;;;9.50;6.33;;;;;;;;;;5002056;28;20038;-88
2021/10/06 06:13:30;;;;;;;2.55;2.35;;;;;;;;;;5004953;28;20060;-88
2021/10/06 06:15:56;;;;;;;0.75;0.73;;;;;;;;;;5006098;28;20028;-89
2021/10/06 06:18:22;;;;;;;7.30;2.67;;;;;;;;;;5001994;28;20091;-89
2021/10/06 06:20:48;;;;;;;0.40;0.40;;;;;;;;;;5003831;28;20045;-88
2021/10/06 06:23:14;;;;;;;12.27;1.93;;;;;;;;;;5006449;28;20018;-88
2021/10/06 06:25:40;;;;;;;0.10;0.10;;;;;;;;;;5006651;28;20327;-88
2021/10/06 06:28:06;;;;;;;20.97;1.83;;;;;;;;;;5008459;28;20069;-89
2021/10/06 06:30:32;;;;;;;9.07;0.30;;;;;;;;;;5006922;28;20521;-88
2021/10/06 06:32:58;;;;;;;0.40;0.40;;;;;;;;;;5006092;28;20068;-88
2021/10/06 06:35:24;;;;;;;28.20;7.17;;;;;;;;;;5005485;28;20111;-87
2021/10/06 06:37:50;;;;;;;41.75;5.13;;;;;;;;;;5006828;28;20049;-89
2021/10/06 06:40:16;;;;;;;26.20;3.83;;;;;;;;;;5004315;28;20033;-89
2021/10/06 06:42:42;;;;;;;5.75;1.55;;;;;;;;;;5006112;28;20030;-90
2021/10/06 06:45:09;;;;;;;0.10;0.10;;;;;;;;;;5008923;28;20404;-91
2021/10/06 06:47:35;;;;;;;0.20;0.20;;;;;;;;;;5002361;28;20033;-89
2021/10/06 06:50:01;;;;;;;0.20;0.20;;;;;;;;;;4994810;28;20038;-88
2021/10/06 06:52:27;;;;;;;9.73;3.33;;;;;;;;;;4998255;28;20045;-88
2021/10/06 06:54:53;;;;;;;40.88;3.85;;;;;;;;;;5008431;28;20104;-89
2021/10/06 06:57:19;;;;;;;0.10;0.10;;;;;;;;;;5007734;28;20045;-87
2021/10/06 06:59:45;;;;;;;14.77;2.80;;;;;;;;;;5005213;28;20018;-87
2021/10/06 07:02:13;;;;;;;0.55;0.55;;;;;;;;;;5002552;28;20038;-89
2021/10/06 07:04:39;;;;;;;0.45;0.45;;;;;;;;;;4998337;28;20038;-88
2021/10/06 07:07:05;;;;;;;0.10;0.10;;;;;;;;;;5005877;28;20497;-88
2021/10/06 07:09:35;;;;;;;2.08;1.02;;;;;;;;;;5004759;28;20033;-87
2021/10/06 07:12:01;;;;;;;0.10;0.10;;;;;;;;;;5004274;28;20049;-87
2021/10/06 07:14:27;;;;;;;0.10;0.10;;;;;;;;;;5000373;28;20034;-86
2021/10/06 07:16:53;;;;;;;0.10;0.10;;;;;;;;;;5003577;28;20034;-89
2021/10/06 07:19:19;;;;;;;0.63;0.63;;;;;;;;;;5004509;28;20050;-88
2021/10/06 07:21:45;;;;;;;2.20;2.00;;;;;;;;;;5007763;28;20033;-87
2021/10/06 07:24:12;;;;;;;9.23;5.57;;;;;;;;;;5002171;28;20058;-86
2021/10/06 07:26:38;;;;;;;3.83;1.50;;;;;;;;;;4997580;28;20490;-86
2021/10/06 07:29:04;;;;;;;4.33;1.93;;;;;;;;;;4993311;28;20057;-82
2021/10/06 07:31:30;;;;;;;0.10;0.10;;;;;;;;;;5004135;28;20068;-81
2021/10/06 07:33:57;;;;;;;0.63;0.63;;;;;;;;;;5005033;28;20942;-81
2021/10/06 07:36:25;;;;;;;1.02;0.95;;;;;;;;;;5002564;28;20030;-82
2021/10/06 07:38:51;;;;;;;2.45;0.85;;;;;;;;;;5002544;28;20038;-81
2021/10/06 07:41:17;;;;;;;0.40;0.40;;;;;;;;;;5002660;28;20384;-82
2021/10/06 07:43:43;;;;;;;0.33;0.33;;;;;;;;;;5003539;28;20092;-82
2021/10/06 07:46:09;;;;;;;1.50;0.77;;;;;;;;;;5005555;28;20041;-82
2021/10/06 07:48:35;;;;;;;0.00;0.00;;;;;;;;;;5002057;28;20483;-82
2021/10/06 07:51:01;;;;;;;0.50;0.50;;;;;;;;;;5002253;28;20034;-83
2021/10/06 07:53:27;;;;;;;6.07;1.13;;;;;;;;;;4993458;28;20038;-82
2021/10/06 07:55:53;;;;;;;0.45;0.45;;;;;;;;;;5003192;28;20037;-82
2021/10/06 07:58:19;;;;;;;0.40;0.40;;;;;;;;;;5005537;28;20041;-82
2021/10/06 08:00:45;;;;;;;2.77;0.70;;;;;;;;;;5002715;28;20654;-82
2021/10/06 08:03:11;;;;;;;1.73;1.63;;;;;;;;;;5002033;28;20037;-82
2021/10/06 08:05:37;;;;;;;6.30;2.42;;;;;;;;;;5002089;28;20034;-83
2021/10/06 08:08:03;;;;;;;0.25;0.25;;;;;;;;;;5002213;28;20125;-82
2021/10/06 08:10:29;;;;;;;1.17;1.08;;;;;;;;;;5004298;28;20041;-82
2021/10/06 08:12:55;;;;;;;1.23;1.13;;;;;;;;;;5005555;28;20034;-83
2021/10/06 08:15:21;;;;;;;0.35;0.35;;;;;;;;;;5003275;28;20113;-82
2021/10/06 08:17:47;;;;;;;0.60;0.60;;;;;;;;;;5004137;28;20044;-82
2021/10/06 08:20:13;;;;;;;0.10;0.10;;;;;;;;;;5004251;28;20427;-82
2021/10/06 08:22:40;;;;;;;0.23;0.23;;;;;;;;;;5003542;28;20310;-83
2021/10/06 08:25:06;;;;;;;0.10;0.10;;;;;;;;;;5005903;28;20026;-82
2021/10/06 08:27:32;;;;;;;0.10;0.10;;;;;;;;;;5003396;28;20556;-82
2021/10/06 08:29:58;;;;;;;0.17;0.17;;;;;;;;;;5003388;28;20542;-82
2021/10/06 08:32:24;;;;;;;0.08;0.08;;;;;;;;;;5003062;28;20044;-82
2021/10/06 08:34:50;;;;;;;0.20;0.20;;;;;;;;;;5003625;28;20022;-82
2021/10/06 08:37:16;;;;;;;1.90;0.80;;;;;;;;;;5003792;28;20049;-83
2021/10/06 08:39:42;;;;;;;0.08;0.08;;;;;;;;;;5003377;28;20101;-82
2021/10/06 08:42:08;;;;;;;2.20;0.95;;;;;;;;;;5003231;28;20522;-83
2021/10/06 08:44:35;;;;;;;1.63;1.25;;;;;;;;;;5002227;28;20129;-82
2021/10/06 08:47:01;;;;;;;0.10;0.10;;;;;;;;;;5003343;28;20038;-82
2021/10/06 08:49:27;;;;;;;0.60;0.60;;;;;;;;;;5004020;28;20022;-82
2021/10/06 08:51:54;;;;;;;0.13;0.13;;;;;;;;;;4998430;28;20061;-81
2021/10/06 08:54:21;;;;;;;0.82;0.60;;;;;;;;;;4999662;28;20030;-82
2021/10/06 08:56:48;;;;;;;0.08;0.08;;;;;;;;;;5002824;28;20045;-82
2021/10/06 08:59:14;;;;;;;0.70;0.70;;;;;;;;;;5002982;28;20018;-83
2021/10/06 09:01:43;;;;;;;2.75;1.23;;;;;;;;;;5002597;28;20050;-82
2021/10/06 09:04:10;;;;;;;0.20;0.20;;;;;;;;;;5005068;28;20091;-83
2021/10/06 09:06:43;;;;;;;0.32;0.28;;;;;;;;;;5003332;28;20140;-82
2021/10/06 09:09:20;;;;;;;0.03;0.03;;;;;;;;;;5002484;28;20133;-82
2021/10/06 09:11:46;;;;;;;;;;;;;;;;;;5002811;28;20050;-83
2021/10/06 09:14:12;;;;;;;4.07;0.75;;;;;;;;;;4999282;28;19925;-82
2021/10/06 09:16:39;;;;;;;0.10;0.10;;;;;;;;;;5002596;28;20033;-82
2021/10/06 09:19:07;;;;;;;0.30;0.30;;;;;;;;;;5004460;28;20069;-83
2021/10/06 09:21:36;;;;;;;0.15;0.15;;;;;;;;;;5002491;28;20064;-83
2021/10/06 09:24:03;;;;;;;0.00;0.00;;;;;;;;;;5002363;28;20045;-82
2021/10/06 09:26:29;;;;;;;0.13;0.13;;;;;;;;;;5002087;28;20026;-84
2021/10/06 09:28:55;;;;;;;0.30;0.13;;;;;;;;;;5002401;28;20462;-83
2021/10/06 09:31:24;;;;;;;0.32;0.10;;;;;;;;;;5003904;28;20038;-83
2021/10/06 09:33:54;;;;;;;0.00;0.00;;;;;;;;;;5002209;28;20045;-83
2021/10/06 09:36:21;;;;;;;0.70;0.22;;;;;;;;;;5003042;28;20030;-83
2021/10/06 09:38:57;;;;;;;0.80;0.70;;;;;;;;;;5002290;28;20033;-83
2021/10/06 09:41:39;;;;;;;0.00;0.00;;;;;;;;;;5002932;28;20026;-83
2021/10/06 09:44:10;;;;;;;4.22;1.48;;;;;;;;;;5002413;28;20045;-82
2021/10/06 09:46:56;;;;;;;0.00;0.00;;;;;;;;;;5002782;28;20029;-83
2021/10/06 09:49:22;;;;;;;;;;;;;;;;;;5001100;28;20065;-82
2021/10/06 09:51:48;;;;;;;0.30;0.30;;;;;;;;;;5002585;28;19917;-83
2021/10/06 09:54:14;;;;;;;0.35;0.30;;;;;;;;;;5003440;28;20635;-83
2021/10/06 09:56:45;;;;;;;0.98;0.73;;;;;;;;;;5006481;28;20022;-83
2021/10/06 09:59:15;;;;;;;0.13;0.13;;;;;;;;;;5006905;28;20410;-84
2021/10/06 10:01:41;;;;;;;8.52;0.20;;;;;;;;;;5006216;28;20034;-83
2021/10/06 10:04:08;;;;;;;0.70;0.70;;;;;;;;;;5008529;28;20410;-82
2021/10/06 10:06:35;;;;;;;16.45;0.32;;;;;;;;;;5006224;28;20057;-84
2021/10/06 10:09:05;;;;;;;0.25;0.25;;;;;;;;;;5004830;28;20037;-83
2021/10/06 10:11:31;;;;;;;0.20;0.20;;;;;;;;;;5005881;28;20819;-83
2021/10/06 10:13:57;;;;;;;0.15;0.15;;;;;;;;;;5004066;28;20034;-83
2021/10/06 10:16:23;;;;;;;0.05;0.05;;;;;;;;;;5007272;28;20030;-82
2021/10/06 10:18:49;;;;;;;0.20;0.20;;;;;;;;;;5006530;28;20120;-83
2021/10/06 10:21:15;;;;;;;0.37;0.30;;;;;;;;;;5004135;28;20125;-83
2021/10/06 10:23:43;;;;;;;10.60;1.25;;;;;;;;;;5004193;28;20284;-83
2021/10/06 10:26:22;;;;;;;0.10;0.10;;;;;;;;;;5003900;28;20096;-83
2021/10/06 10:28:48;;;;;;;0.00;0.00;;;;;;;;;;4990264;28;20072;-83
2021/10/06 10:31:18;;;;;;;0.22;0.22;;;;;;;;;;5007621;28;20117;-83
2021/10/06 10:33:44;;;;;;;0.05;0.05;;;;;;;;;;5003916;28;20573;-83
2021/10/06 10:36:29;;;;;;;0.10;0.10;;;;;;;;;;5005459;28;20038;-83
2021/10/06 10:38:55;;;;;;;2.50;1.63;;;;;;;;;;5004238;28;20498;-83
2021/10/06 10:41:39;;;;;;;0.35;0.35;;;;;;;;;;5004652;28;20033;-83
2021/10/06 10:44:06;;;;;;;0.00;0.00;;;;;;;;;;4988175;28;20038;-83
2021/10/06 10:46:52;;;;;;;0.08;0.08;;;;;;;;;;5002816;28;20101;-83
2021/10/06 10:49:18;;;;;;;0.20;0.20;;;;;;;;;;4988921;28;20575;-83
2021/10/06 10:51:45;;;;;;;0.00;0.00;;;;;;;;;;4989462;28;20053;-83
2021/10/06 10:54:13;;;;;;;0.10;0.10;;;;;;;;;;4992383;28;20034;-83
2021/10/06 10:56:43;;;;;;;0.20;0.20;;;;;;;;;;5004732;28;20033;-83
2021/10/06 10:59:13;;;;;;;0.00;0.00;;;;;;;;;;4989949;28;20057;-84
2021/10/06 11:01:50;;;;;;;0.20;0.20;;;;;;;;;;4988267;28;20034;-84
2021/10/06 11:04:21;;;;;;;0.08;0.08;;;;;;;;;;4998674;28;20026;-83
2021/10/06 11:06:48;;;;;;;0.00;0.00;;;;;;;;;;4992513;28;20058;-84
2021/10/06 11:09:44;;;;;;;0.10;0.10;;;;;;;;;;4997278;28;20026;-83
2021/10/06 11:12:14;;;;;;;1.35;0.40;;;;;;;;;;4983101;28;20789;-83
2021/10/06 11:14:41;;;;;;;0.45;0.20;;;;;;;;;;4988968;28;20038;-83
2021/10/06 11:17:20;;;;;;;0.00;0.00;;;;;;;;;;4987466;28;20027;-83
2021/10/06 11:19:46;;;;;;;0.00;0.00;;;;;;;;;;4988262;28;20077;-84
2021/10/06 11:22:24;;;;;;;0.10;0.10;;;;;;;;;;4991620;28;20081;-83
2021/10/06 11:24:51;;;;;;;0.00;0.00;;;;;;;;;;5003579;28;20069;-83
2021/10/06 11:27:18;;;;;;;0.38;0.32;;;;;;;;;;4998889;28;20089;-83
2021/10/06 11:29:45;;;;;;;0.03;0.03;;;;;;;;;;5004482;28;20036;-83
2021/10/06 11:32:11;;;;;;;0.20;0.20;;;;;;;;;;5004210;28;20092;-83
2021/10/06 11:34:46;;;;;;;0.00;0.00;;;;;;;;;;5004503;28;20033;-83
2021/10/06 11:37:16;;;;;;;0.65;0.65;;;;;;;;;;5006339;28;20875;-83
2021/10/06 11:39:42;;;;;;;0.00;0.00;;;;;;;;;;4990307;28;20038;-83
2021/10/06 11:42:08;;;;;;;0.10;0.10;;;;;;;;;;4999250;28;20062;-83
2021/10/06 11:44:35;;;;;;;0.10;0.10;;;;;;;;;;5004104;28;20025;-83
2021/10/06 11:47:03;;;;;;;0.70;0.63;;;;;;;;;;4992991;28;20034;-83
2021/10/06 11:49:34;;;;;;;0.00;0.00;;;;;;;;;;5004973;28;20049;-83
2021/10/06 11:52:00;;;;;;;0.05;0.05;;;;;;;;;;4995545;28;20429;-83
2021/10/06 11:54:26;;;;;;;1.35;1.15;;;;;;;;;;4995103;28;20052;-83
2021/10/06 11:56:54;;;;;;;2.88;1.13;;;;;;;;;;4996572;28;20064;-83
2021/10/06 11:59:21;;;;;;;0.10;0.10;;;;;;;;;;5004288;28;20088;-83
2021/10/06 12:01:54;;;;;;;0.10;0.10;;;;;;;;;;5003424;28;20038;-83
2021/10/06 12:04:23;;;;;;;0.00;0.00;;;;;;;;;;5001932;28;20039;-83
2021/10/06 12:06:59;;;;;;;0.00;0.00;;;;;;;;;;4997198;28;20034;-83
2021/10/06 12:09:25;;;;;;;0.40;0.40;;;;;;;;;;5000866;28;20038;-83
2021/10/06 12:11:51;;;;;;;1.88;0.90;;;;;;;;;;5003713;28;20116;-84
2021/10/06 12:14:17;;;;;;;0.73;0.40;;;;;;;;;;5003916;28;20121;-83
2021/10/06 12:16:43;;;;;;;0.10;0.10;;;;;;;;;;5003723;28;20074;-84
2021/10/06 12:19:09;;;;;;;0.07;0.07;;;;;;;;;;4992447;28;20290;-83
2021/10/06 12:21:35;;;;;;;0.38;0.38;;;;;;;;;;5001118;28;20644;-83
2021/10/06 12:24:02;;;;;;;0.00;0.00;;;;;;;;;;5003683;28;20457;-84
2021/10/06 12:26:33;;;;;;;0.00;0.00;;;;;;;;;;5003287;28;20292;-84
2021/10/06 12:29:03;;;;;;;0.90;0.82;;;;;;;;;;5003492;28;20026;-83
2021/10/06 12:31:31;;;;;;;0.40;0.40;;;;;;;;;;5004087;28;20080;-84
2021/10/06 12:34:09;;;;;;;0.20;0.20;;;;;;;;;;5005297;28;20034;-83
2021/10/06 12:36:35;;;;;;;0.17;0.17;;;;;;;;;;5002871;28;20118;-83
2021/10/06 12:39:02;;;;;;;0.10;0.10;;;;;;;;;;5003841;28;20036;-84
2021/10/06 12:41:42;;;;;;;0.00;0.00;;;;;;;;;;5003204;28;20052;-83
2021/10/06 12:44:15;;;;;;;0.00;0.00;;;;;;;;;;4998973;28;20180;-84
2021/10/06 12:46:42;;;;;;;0.05;0.05;;;;;;;;;;4991846;28;20132;-83
2021/10/06 12:49:10;;;;;;;4.18;1.75;;;;;;;;;;5005473;28;20022;-84
2021/10/06 12:51:37;;;;;;;0.00;0.00;;;;;;;;;;4999382;28;20127;-83
2021/10/06 12:54:16;;;;;;;0.50;0.40;;;;;;;;;;4997405;28;20030;-84
2021/10/06 12:56:49;;;;;;;0.00;0.00;;;;;;;;;;5003110;28;20087;-83
2021/10/06 12:59:15;;;;;;;0.20;0.10;;;;;;;;;;5002979;28;20624;-84
2021/10/06 13:01:48;;;;;;;0.10;0.10;;;;;;;;;;5002825;28;20069;-84
2021/10/06 13:04:16;;;;;;;0.20;0.20;;;;;;;;;;5005215;28;20113;-83
2021/10/06 13:06:43;;;;;;;0.30;0.20;;;;;;;;;;5002556;28;20030;-83
2021/10/06 13:09:10;;;;;;;0.35;0.35;;;;;;;;;;4993022;28;20042;-83
2021/10/06 13:11:37;;;;;;;0.00;0.00;;;;;;;;;;4986364;28;20458;-82
2021/10/06 13:14:04;;;;;;;0.00;0.00;;;;;;;;;;4986896;28;20535;-83
2021/10/06 13:16:30;;;;;;;;;;;;;;;;;;4984310;28;20034;-83
2021/10/06 13:18:57;;;;;;;0.03;0.03;;;;;;;;;;4986445;28;19917;-82
2021/10/06 13:21:24;;;;;;;3.40;0.32;;;;;;;;;;4988918;28;20092;-83
2021/10/06 13:23:50;;;;;;;0.10;0.10;;;;;;;;;;4986334;28;20030;-83
2021/10/06 13:26:17;;;;;;;0.00;0.00;;;;;;;;;;4986500;28;20079;-83
2021/10/06 13:28:43;;;;;;;0.00;0.00;;;;;;;;;;4984459;28;20076;-84
2021/10/06 13:31:10;;;;;;;0.00;0.00;;;;;;;;;;4985418;28;20026;-84
2021/10/06 13:33:36;;;;;;;0.00;0.00;;;;;;;;;;5000840;28;20188;-83
2021/10/06 13:36:08;;;;;;;0.03;0.03;;;;;;;;;;4986502;28;20034;-83
2021/10/06 13:38:34;;;;;;;0.10;0.10;;;;;;;;;;4992472;28;20108;-84
2021/10/06 13:41:00;;;;;;;0.03;0.03;;;;;;;;;;5002172;28;20026;-84
2021/10/06 13:43:26;;;;;;;0.10;0.10;;;;;;;;;;5002631;28;20045;-84
2021/10/06 13:45:52;;;;;;;0.10;0.10;;;;;;;;;;4998069;28;20126;-83
2021/10/06 13:48:18;;;;;;;7.80;0.45;;;;;;;;;;5001367;28;20115;-84
2021/10/06 13:50:44;;;;;;;0.00;0.00;;;;;;;;;;5002793;28;20120;-82
2021/10/06 13:53:10;;;;;;;11.60;2.33;;;;;;;;;;4993054;28;20312;-82
2021/10/06 13:55:36;;;;;;;0.30;0.30;;;;;;;;;;5000407;28;20029;-82
2021/10/06 13:58:02;;;;;;;0.10;0.10;;;;;;;;;;5004133;28;20258;-83
2021/10/06 14:00:31;;;;;;;0.20;0.20;;;;;;;;;;5001826;28;20037;-83
2021/10/06 14:02:58;;;;;;;0.00;0.00;;;;;;;;;;5001407;28;20309;-83
2021/10/06 14:05:25;;;;;;;0.00;0.00;;;;;;;;;;5001817;28;20509;-82
2021/10/06 14:07:51;;;;;;;0.10;0.10;;;;;;;;;;4999287;28;20814;-84
2021/10/06 14:10:19;;;;;;;0.00;0.00;;;;;;;;;;4998608;28;20034;-83
2021/10/06 14:12:45;;;;;;;0.10;0.10;;;;;;;;;;5001654;28;20457;-83
2021/10/06 14:15:11;;;;;;;0.00;0.00;;;;;;;;;;5002645;28;20114;-83
2021/10/06 14:17:37;;;;;;;0.10;0.10;;;;;;;;;;5001506;28;20121;-84
2021/10/06 14:20:03;;;;;;;0.03;0.03;;;;;;;;;;5001362;28;20078;-83
2021/10/06 14:22:29;;;;;;;0.00;0.00;;;;;;;;;;5002639;28;20741;-83
2021/10/06 14:24:55;;;;;;;0.10;0.10;;;;;;;;;;5003153;28;20030;-85
2021/10/06 14:27:21;;;;;;;0.00;0.00;;;;;;;;;;4997843;28;20763;-84
2021/10/06 14:29:50;;;;;;;0.00;0.00;;;;;;;;;;4986703;28;20888;-83
2021/10/06 14:32:17;;;;;;;0.03;0.03;;;;;;;;;;4984443;28;20050;-84
2021/10/06 14:34:43;;;;;;;0.25;0.25;;;;;;;;;;4986127;28;20030;-84
2021/10/06 14:37:09;;;;;;;0.10;0.10;;;;;;;;;;4989218;28;20070;-85
2021/10/06 14:39:35;;;;;;;0.03;0.03;;;;;;;;;;4988086;28;20309;-84
2021/10/06 14:42:01;;;;;;;0.10;0.10;;;;;;;;;;4988932;28;20507;-84